createdAt,value
2022-10-28T00:01:26.009Z,15.20
2022-10-28T00:03:56.930Z,15.30
2022-10-28T00:06:27.381Z,15.20
2022-10-28T00:08:56.241Z,15.20
2022-10-28T00:11:25.579Z,15.20
2022-10-28T00:13:56.480Z,15.20
2022-10-28T00:16:26.573Z,15.20
2022-10-28T00:18:55.289Z,15.20
2022-10-28T00:21:25.944Z,15.20
2022-10-28T00:23:54.075Z,15.20
2022-10-28T00:26:24.514Z,15.20
2022-10-28T00:28:54.595Z,15.10
2022-10-28T00:31:26.170Z,15.10
2022-10-28T00:33:54.737Z,15.10
2022-10-28T00:36:25.045Z,15.20
2022-10-28T00:38:55.590Z,15.20
2022-10-28T00:41:26.362Z,15.10
2022-10-28T00:43:56.513Z,15.10
2022-10-28T00:46:31.725Z,15.00
2022-10-28T00:49:04.239Z,15.00
2022-10-28T00:51:34.824Z,15.00
2022-10-28T00:54:04.714Z,15.00
2022-10-28T00:56:35.609Z,15.10
2022-10-28T00:59:08.116Z,15.00
2022-10-28T01:01:37.939Z,15.10
2022-10-28T01:04:06.651Z,15.10
2022-10-28T01:06:34.946Z,15.10
2022-10-28T01:09:03.585Z,15.10
2022-10-28T01:11:53.212Z,15.10
2022-10-28T01:14:32.303Z,15.10
2022-10-28T01:17:19.959Z,15.00
2022-10-28T01:20:33.925Z,15.00
2022-10-28T01:23:12.948Z,14.90
2022-10-28T01:26:11.374Z,14.90
2022-10-28T01:29:03.870Z,15.00
2022-10-28T01:31:40.945Z,15.00
2022-10-28T01:34:20.299Z,15.00
2022-10-28T01:36:56.819Z,15.10
2022-10-28T01:39:34.586Z,15.00
2022-10-28T01:42:14.847Z,14.90
2022-10-28T01:44:50.407Z,14.90
2022-10-28T01:47:23.944Z,15.00
2022-10-28T01:49:58.139Z,15.10
2022-10-28T01:52:30.131Z,15.00
2022-10-28T01:55:04.138Z,15.10
2022-10-28T01:57:34.731Z,15.10
2022-10-28T02:00:03.961Z,15.10
2022-10-28T02:02:35.694Z,15.10
2022-10-28T02:05:06.810Z,15.10
2022-10-28T02:07:37.569Z,15.20
2022-10-28T02:10:17.216Z,15.20
2022-10-28T02:12:49.398Z,15.20
2022-10-28T02:15:35.202Z,15.10
2022-10-28T02:18:29.656Z,15.10
2022-10-28T02:21:02.955Z,15.10
2022-10-28T02:23:43.241Z,15.10
2022-10-28T02:26:18.986Z,15.10
2022-10-28T02:28:56.126Z,15.10
2022-10-28T02:31:29.310Z,15.10
2022-10-28T02:34:02.468Z,15.10
2022-10-28T02:36:36.342Z,15.10
2022-10-28T02:39:07.346Z,15.20
2022-10-28T02:41:42.993Z,15.20
2022-10-28T02:44:15.180Z,15.20
2022-10-28T02:46:46.413Z,15.20
2022-10-28T02:49:16.868Z,15.10
2022-10-28T02:51:48.364Z,15.20
2022-10-28T02:54:19.783Z,15.20
2022-10-28T02:56:54.642Z,15.20
2022-10-28T02:59:25.794Z,15.20
2022-10-28T03:01:54.355Z,15.30
2022-10-28T03:04:24.714Z,15.30
2022-10-28T03:06:52.942Z,15.20
2022-10-28T03:09:21.313Z,15.20
2022-10-28T03:11:49.471Z,15.10
2022-10-28T03:14:17.659Z,15.10
2022-10-28T03:16:46.206Z,15.10
2022-10-28T03:19:14.828Z,15.10
2022-10-28T03:21:44.440Z,15.10
2022-10-28T03:24:12.595Z,15.10
2022-10-28T03:26:40.835Z,15.10
2022-10-28T03:29:09.210Z,15.20
2022-10-28T03:31:37.438Z,15.10
2022-10-28T03:34:05.788Z,15.20
2022-10-28T03:36:34.479Z,15.20
2022-10-28T03:39:04.180Z,15.20
2022-10-28T03:41:32.695Z,15.30
2022-10-28T03:44:01.227Z,15.30
2022-10-28T03:46:31.116Z,15.40
2022-10-28T03:49:01.679Z,15.40
2022-10-28T03:51:29.822Z,15.40
2022-10-28T03:53:57.873Z,15.30
2022-10-28T03:56:27.342Z,15.30
2022-10-28T03:58:55.673Z,15.20
2022-10-28T04:01:24.371Z,15.30
2022-10-28T04:03:52.748Z,15.30
2022-10-28T04:06:20.835Z,15.20
2022-10-28T04:08:49.081Z,15.20
2022-10-28T04:11:17.439Z,15.30
2022-10-28T04:13:46.802Z,15.30
2022-10-28T04:16:15.112Z,15.30
2022-10-28T04:18:43.293Z,15.40
2022-10-28T04:21:11.634Z,15.30
2022-10-28T04:23:40.091Z,15.30
2022-10-28T04:26:09.107Z,15.30
2022-10-28T04:28:37.493Z,15.30
2022-10-28T04:31:07.308Z,15.30
2022-10-28T04:33:35.814Z,15.30
2022-10-28T04:36:04.004Z,15.30
2022-10-28T04:38:32.387Z,15.30
2022-10-28T04:41:00.657Z,15.20
2022-10-28T04:43:28.772Z,15.20
2022-10-28T04:45:57.047Z,15.20
2022-10-28T04:48:27.074Z,15.20
2022-10-28T04:50:55.447Z,15.20
2022-10-28T04:53:24.046Z,15.20
2022-10-28T04:55:52.268Z,15.20
2022-10-28T04:58:20.675Z,15.30
2022-10-28T05:00:48.836Z,15.30
2022-10-28T05:03:17.181Z,15.30
2022-10-28T05:05:46.923Z,15.30
2022-10-28T05:08:15.258Z,15.30
2022-10-28T05:10:43.461Z,15.30
2022-10-28T05:13:11.511Z,15.30
2022-10-28T05:15:39.582Z,15.30
2022-10-28T05:18:07.729Z,15.30
2022-10-28T05:20:36.000Z,15.30
2022-10-28T05:23:05.813Z,15.20
2022-10-28T05:25:34.075Z,15.20
2022-10-28T05:28:03.095Z,15.20
2022-10-28T05:30:31.457Z,15.20
2022-10-28T05:33:04.007Z,15.10
2022-10-28T05:35:35.115Z,15.10
2022-10-28T05:38:03.394Z,15.00
2022-10-28T05:40:33.723Z,15.10
2022-10-28T05:43:02.161Z,15.00
2022-10-28T05:45:30.903Z,14.90
2022-10-28T05:47:59.826Z,14.90
2022-10-28T05:50:28.512Z,15.00
2022-10-28T05:52:59.088Z,14.90
2022-10-28T05:55:29.648Z,14.90
2022-10-28T05:57:59.367Z,14.90
2022-10-28T06:00:28.433Z,14.90
2022-10-28T06:03:04.302Z,14.90
2022-10-28T06:05:32.654Z,14.90
2022-10-28T06:08:00.706Z,14.90
2022-10-28T06:10:28.755Z,14.90
2022-10-28T06:12:56.974Z,14.90
2022-10-28T06:15:25.277Z,14.90
2022-10-28T06:17:53.633Z,15.00
2022-10-28T06:20:23.305Z,14.90
2022-10-28T06:22:54.072Z,15.00
2022-10-28T06:25:24.637Z,15.00
2022-10-28T06:27:54.031Z,15.00
2022-10-28T06:30:25.411Z,15.00
2022-10-28T06:32:56.655Z,15.00
2022-10-28T06:35:25.002Z,15.00
2022-10-28T06:37:55.314Z,15.10
2022-10-28T06:40:25.080Z,15.10
2022-10-28T06:42:58.329Z,15.10
2022-10-28T06:45:28.707Z,15.10
2022-10-28T06:47:59.191Z,15.20
2022-10-28T06:50:27.912Z,15.20
2022-10-28T06:52:57.629Z,15.30
2022-10-28T06:55:26.178Z,15.20
2022-10-28T06:57:55.262Z,15.30
2022-10-28T07:00:25.031Z,15.30
2022-10-28T07:02:55.940Z,15.40
2022-10-28T07:05:26.722Z,15.40
2022-10-28T07:07:55.692Z,15.40
2022-10-28T07:10:26.111Z,15.40
2022-10-28T07:12:55.238Z,15.40
2022-10-28T07:15:23.981Z,15.40
2022-10-28T07:17:58.164Z,15.40
2022-10-28T07:20:28.404Z,15.30
2022-10-28T07:23:00.222Z,15.30
2022-10-28T07:25:31.527Z,15.40
2022-10-28T07:27:59.948Z,15.40
2022-10-28T07:30:29.471Z,15.40
2022-10-28T07:33:01.366Z,15.40
2022-10-28T07:35:30.592Z,15.50
2022-10-28T07:37:59.012Z,15.40
2022-10-28T07:40:27.965Z,15.40
2022-10-28T07:42:56.559Z,15.40
2022-10-28T07:45:25.839Z,15.40
2022-10-28T07:47:54.873Z,15.50
2022-10-28T07:50:25.694Z,15.50
2022-10-28T07:52:54.261Z,15.50
2022-10-28T07:55:22.936Z,15.60
2022-10-28T07:57:51.778Z,15.70
2022-10-28T08:00:20.424Z,15.70
2022-10-28T08:02:51.485Z,15.70
2022-10-28T08:05:20.312Z,15.70
2022-10-28T08:07:49.872Z,15.80
2022-10-28T08:10:19.705Z,15.90
2022-10-28T08:12:49.971Z,15.90
2022-10-28T08:15:21.196Z,15.90
2022-10-28T08:17:52.888Z,15.90
2022-10-28T08:20:21.910Z,16.00
2022-10-28T08:22:52.855Z,16.10
2022-10-28T08:25:21.520Z,16.10
2022-10-28T08:27:50.240Z,16.10
2022-10-28T08:30:18.814Z,16.10
2022-10-28T08:32:47.277Z,16.20
2022-10-28T08:35:17.001Z,16.30
2022-10-28T08:37:53.960Z,16.30
2022-10-28T08:40:30.867Z,16.30
2022-10-28T08:43:05.282Z,16.30
2022-10-28T08:45:41.511Z,16.30
2022-10-28T08:48:22.169Z,16.30
2022-10-28T08:50:54.554Z,16.20
2022-10-28T08:53:30.351Z,16.20
2022-10-28T08:56:08.212Z,16.20
2022-10-28T08:58:40.580Z,16.30
2022-10-28T09:01:16.325Z,16.30
2022-10-28T09:03:47.217Z,16.30
2022-10-28T09:06:15.480Z,16.30
2022-10-28T09:08:49.913Z,16.40
2022-10-28T09:11:40.299Z,16.40
2022-10-28T09:14:21.247Z,16.40
2022-10-28T09:16:51.080Z,16.50
2022-10-28T09:19:35.585Z,16.60
2022-10-28T09:22:20.916Z,16.60
2022-10-28T09:24:55.180Z,16.70
2022-10-28T09:27:50.068Z,16.70
2022-10-28T09:30:27.852Z,16.70
2022-10-28T09:33:08.218Z,16.70
2022-10-28T09:35:42.729Z,16.80
2022-10-28T09:38:22.352Z,16.80
2022-10-28T09:41:02.354Z,17.00
2022-10-28T09:43:34.196Z,17.10
2022-10-28T09:46:07.462Z,17.20
2022-10-28T09:48:41.414Z,17.20
2022-10-28T09:51:22.870Z,17.30
2022-10-28T09:53:56.818Z,17.30
2022-10-28T09:56:27.002Z,17.30
2022-10-28T09:58:58.791Z,17.50
2022-10-28T10:01:28.283Z,17.70
2022-10-28T10:03:57.571Z,18.00
2022-10-28T10:06:30.241Z,18.20
2022-10-28T10:08:59.881Z,18.40
2022-10-28T10:11:35.078Z,18.60
2022-10-28T10:14:08.539Z,18.80
2022-10-28T10:16:46.711Z,19.00
2022-10-28T10:19:15.250Z,19.20
2022-10-28T10:21:46.350Z,19.30
2022-10-28T10:24:32.521Z,19.40
2022-10-28T10:27:13.659Z,19.50
2022-10-28T10:29:46.730Z,19.50
2022-10-28T10:32:19.600Z,19.50
2022-10-28T10:35:02.082Z,19.60
2022-10-28T10:37:34.721Z,19.60
2022-10-28T10:40:17.838Z,19.70
2022-10-28T10:43:09.527Z,19.70
2022-10-28T10:45:35.970Z,19.80
2022-10-28T10:48:13.440Z,19.80
2022-10-28T10:50:42.516Z,19.70
2022-10-28T10:53:23.012Z,19.80
2022-10-28T10:55:53.592Z,19.80
2022-10-28T10:58:25.885Z,20.00
2022-10-28T11:00:55.899Z,20.00
2022-10-28T11:03:26.982Z,20.00
2022-10-28T11:06:21.909Z,20.10
2022-10-28T11:08:48.040Z,20.10
2022-10-28T11:11:22.173Z,20.10
2022-10-28T11:14:07.123Z,20.20
2022-10-28T11:16:35.468Z,20.30
2022-10-28T11:19:33.911Z,20.40
2022-10-28T11:22:19.361Z,20.40
2022-10-28T11:25:00.823Z,20.40
2022-10-28T11:27:38.522Z,20.40
2022-10-28T11:30:14.982Z,20.30
2022-10-28T11:33:08.492Z,20.30
2022-10-28T11:35:57.577Z,20.20
2022-10-28T11:38:46.624Z,20.10
2022-10-28T11:41:27.479Z,20.10
2022-10-28T11:44:00.919Z,20.30
2022-10-28T11:46:42.041Z,20.50
2022-10-28T11:49:48.705Z,20.60
2022-10-28T11:52:28.424Z,20.70
2022-10-28T11:55:06.599Z,20.80
2022-10-28T11:57:47.467Z,20.80
2022-10-28T12:00:41.949Z,20.90
2022-10-28T12:03:33.745Z,21.00
2022-10-28T12:06:11.273Z,21.20
2022-10-28T12:09:03.483Z,21.30
2022-10-28T12:11:45.917Z,21.20
2022-10-28T12:14:23.487Z,21.10
2022-10-28T12:16:56.036Z,21.20
2022-10-28T12:19:31.655Z,21.30
2022-10-28T12:22:07.101Z,21.40
2022-10-28T12:24:41.212Z,21.30
2022-10-28T12:27:18.253Z,21.30
2022-10-28T12:29:52.144Z,21.30
2022-10-28T12:32:23.785Z,21.40
2022-10-28T12:34:58.580Z,21.40
2022-10-28T12:37:33.085Z,21.30
2022-10-28T12:40:08.639Z,21.30
2022-10-28T12:42:44.484Z,21.20
2022-10-28T12:45:16.123Z,21.00
2022-10-28T12:47:49.836Z,20.90
2022-10-28T12:50:26.910Z,21.00
2022-10-28T12:53:03.247Z,21.00
2022-10-28T12:55:37.944Z,21.00
2022-10-28T12:58:15.496Z,21.20
2022-10-28T13:00:47.193Z,21.10
2022-10-28T13:03:17.156Z,21.10
2022-10-28T13:05:52.790Z,21.00
2022-10-28T13:09:03.829Z,21.00
2022-10-28T13:12:04.629Z,21.10
2022-10-28T13:14:58.573Z,21.10
2022-10-28T13:17:40.232Z,21.00
2022-10-28T13:20:20.987Z,20.80
2022-10-28T13:23:13.157Z,20.80
2022-10-28T13:26:03.446Z,20.70
2022-10-28T13:28:35.279Z,20.60
2022-10-28T13:31:07.086Z,20.60
2022-10-28T13:33:37.768Z,20.60
2022-10-28T13:36:12.956Z,20.60
2022-10-28T13:38:42.897Z,20.50
2022-10-28T13:41:32.130Z,20.50
2022-10-28T13:44:48.399Z,20.60
2022-10-28T13:47:37.243Z,20.50
2022-10-28T13:50:46.343Z,20.50
2022-10-28T13:53:53.363Z,20.50
2022-10-28T13:56:37.117Z,20.40
2022-10-28T13:59:18.629Z,20.40
2022-10-28T14:02:07.577Z,20.40
2022-10-28T14:04:44.156Z,20.40
2022-10-28T14:07:29.319Z,20.30
2022-10-28T14:10:26.477Z,20.30
2022-10-28T14:16:45.519Z,20.30
2022-10-28T14:19:29.353Z,20.40
2022-10-28T14:25:49.110Z,20.50
2022-10-28T14:29:04.025Z,20.50
2022-10-28T14:31:58.373Z,20.40
2022-10-28T14:34:56.729Z,20.40
2022-10-28T14:38:31.021Z,20.50
2022-10-28T14:42:04.798Z,20.40
2022-10-28T14:44:58.644Z,20.40
2022-10-28T14:47:45.653Z,20.40
2022-10-28T14:50:21.753Z,20.30
2022-10-28T14:52:52.085Z,20.20
2022-10-28T14:55:28.419Z,20.20
2022-10-28T14:58:14.042Z,20.20
2022-10-28T15:00:55.358Z,20.10
2022-10-28T15:03:35.506Z,20.00
2022-10-28T15:06:04.149Z,20.00
2022-10-28T15:08:32.511Z,20.00
2022-10-28T15:11:01.793Z,20.00
2022-10-28T15:13:31.874Z,20.00
2022-10-28T15:16:10.156Z,20.00
2022-10-28T15:19:00.925Z,20.00
2022-10-28T15:22:08.917Z,19.90
2022-10-28T15:28:41.957Z,19.80
2022-10-28T15:31:27.207Z,19.80
2022-10-28T15:34:00.769Z,19.80
2022-10-28T15:36:28.944Z,19.70
2022-10-28T15:39:08.033Z,19.60
2022-10-28T15:42:01.181Z,19.60
2022-10-28T15:44:36.834Z,19.60
2022-10-28T15:47:32.544Z,19.50
2022-10-28T15:50:21.124Z,19.60
2022-10-28T15:52:52.427Z,19.60
2022-10-28T15:55:47.614Z,19.60
2022-10-28T15:58:45.307Z,19.60
2022-10-28T16:01:32.851Z,19.50
2022-10-28T16:04:01.128Z,19.50
2022-10-28T16:06:31.914Z,19.50
2022-10-28T16:09:03.432Z,19.50
2022-10-28T16:11:32.790Z,19.50
2022-10-28T16:14:03.321Z,19.50
2022-10-28T16:16:34.296Z,19.40
2022-10-28T16:19:08.264Z,19.40
2022-10-28T16:21:37.508Z,19.40
2022-10-28T16:24:06.668Z,19.40
2022-10-28T16:26:37.286Z,19.30
2022-10-28T16:29:08.083Z,19.30
2022-10-28T16:31:43.154Z,19.30
2022-10-28T16:34:16.015Z,19.30
2022-10-28T16:36:44.395Z,19.20
2022-10-28T16:39:14.216Z,19.20
2022-10-28T16:41:43.670Z,19.20
2022-10-28T16:44:17.863Z,19.20
2022-10-28T16:46:48.128Z,19.30
2022-10-28T16:49:16.675Z,19.30
2022-10-28T16:51:46.217Z,19.30
2022-10-28T16:54:14.527Z,19.30
2022-10-28T16:56:43.280Z,19.30
2022-10-28T16:59:11.753Z,19.40
2022-10-28T17:01:40.334Z,19.40
2022-10-28T17:04:11.147Z,19.40
2022-10-28T17:06:39.364Z,19.50
2022-10-28T17:09:07.723Z,19.50
2022-10-28T17:11:36.678Z,19.50
2022-10-28T17:14:05.217Z,19.40
2022-10-28T17:16:39.247Z,19.40
2022-10-28T17:19:12.633Z,19.50
2022-10-28T17:21:43.776Z,19.40
2022-10-28T17:24:18.023Z,19.40
2022-10-28T17:26:47.371Z,19.40
2022-10-28T17:29:15.827Z,19.40
2022-10-28T17:31:44.766Z,19.40
2022-10-28T17:34:15.053Z,19.40
2022-10-28T17:36:43.461Z,19.40
2022-10-28T17:39:16.563Z,19.30
2022-10-28T17:41:46.808Z,19.30
2022-10-28T17:44:14.970Z,19.30
2022-10-28T17:46:44.541Z,19.20
2022-10-28T17:49:14.604Z,19.20
2022-10-28T17:51:42.904Z,19.20
2022-10-28T17:54:12.034Z,19.30
2022-10-28T17:56:42.225Z,19.30
2022-10-28T17:59:11.596Z,19.30
2022-10-28T18:01:40.643Z,19.30
2022-10-28T18:04:08.969Z,19.30
2022-10-28T18:06:38.829Z,19.40
2022-10-28T18:09:10.700Z,19.40
2022-10-28T18:11:41.472Z,19.30
2022-10-28T18:14:10.529Z,19.30
2022-10-28T18:16:39.657Z,19.30
2022-10-28T18:19:08.648Z,19.30
2022-10-28T18:21:38.700Z,19.20
2022-10-28T18:24:07.538Z,19.20
2022-10-28T18:26:40.371Z,19.20
2022-10-28T18:29:13.308Z,19.20
2022-10-28T18:31:44.310Z,19.20
2022-10-28T18:34:12.941Z,19.10
2022-10-28T18:36:42.701Z,19.10
2022-10-28T18:39:11.050Z,19.00
2022-10-28T18:41:42.006Z,19.00
2022-10-28T18:44:17.057Z,19.00
2022-10-28T18:46:46.348Z,19.00
2022-10-28T18:49:14.549Z,19.00
2022-10-28T18:51:44.379Z,19.10
2022-10-28T18:54:12.839Z,19.10
2022-10-28T18:56:44.811Z,19.10
2022-10-28T18:59:16.469Z,19.10
2022-10-28T19:01:47.132Z,19.10
2022-10-28T19:04:15.589Z,19.10
2022-10-28T19:06:47.338Z,19.10
2022-10-28T19:09:15.855Z,19.10
2022-10-28T19:11:45.838Z,19.10
2022-10-28T19:14:14.984Z,19.10
2022-10-28T19:16:43.885Z,19.10
2022-10-28T19:19:12.021Z,19.10
2022-10-28T19:21:40.479Z,19.10
2022-10-28T19:24:10.819Z,19.10
2022-10-28T19:26:39.483Z,19.10
2022-10-28T19:29:07.674Z,19.10
2022-10-28T19:31:39.052Z,19.10
2022-10-28T19:34:07.363Z,19.10
2022-10-28T19:36:35.993Z,19.10
2022-10-28T19:39:04.924Z,19.00
2022-10-28T19:41:34.850Z,19.00
2022-10-28T19:44:04.521Z,18.90
2022-10-28T19:46:34.325Z,18.90
2022-10-28T19:49:06.456Z,18.90
2022-10-28T19:51:38.228Z,18.90
2022-10-28T19:54:09.045Z,18.90
2022-10-28T19:56:40.023Z,18.90
2022-10-28T19:59:08.612Z,18.80
2022-10-28T20:01:39.809Z,18.80
2022-10-28T20:04:10.202Z,18.80
2022-10-28T20:06:40.512Z,18.80
2022-10-28T20:09:09.846Z,18.80
2022-10-28T20:11:42.780Z,18.80
2022-10-28T20:14:13.139Z,18.80
2022-10-28T20:16:43.726Z,18.80
2022-10-28T20:19:12.307Z,18.80
2022-10-28T20:21:40.614Z,18.70
2022-10-28T20:24:10.062Z,18.70
2022-10-28T20:26:41.128Z,18.70
2022-10-28T20:29:10.255Z,18.70
2022-10-28T20:31:40.205Z,18.70
2022-10-28T20:34:09.362Z,18.70
2022-10-28T20:36:39.410Z,18.60
2022-10-28T20:39:09.598Z,18.60
2022-10-28T20:41:41.271Z,18.60
2022-10-28T20:44:10.095Z,18.50
2022-10-28T20:46:39.497Z,18.50
2022-10-28T20:49:09.943Z,18.50
2022-10-28T20:51:38.480Z,18.50
2022-10-28T20:54:07.244Z,18.50
2022-10-28T20:56:37.868Z,18.40
2022-10-28T20:59:08.575Z,18.40
2022-10-28T21:01:40.221Z,18.40
2022-10-28T21:04:10.443Z,18.40
2022-10-28T21:06:39.635Z,18.30
2022-10-28T21:09:08.894Z,18.30
2022-10-28T21:11:37.373Z,18.30
2022-10-28T21:14:05.754Z,18.20
2022-10-28T21:16:36.208Z,18.10
2022-10-28T21:19:04.485Z,18.10
2022-10-28T21:21:34.122Z,18.00
2022-10-28T21:24:03.827Z,18.00
2022-10-28T21:26:32.168Z,18.00
2022-10-28T21:29:00.361Z,17.90
2022-10-28T21:31:28.749Z,17.90
2022-10-28T21:34:00.704Z,17.80
2022-10-28T21:36:32.189Z,17.80
2022-10-28T21:39:01.208Z,17.70
2022-10-28T21:41:29.331Z,17.70
2022-10-28T21:43:57.432Z,17.70
2022-10-28T21:46:25.936Z,17.70
2022-10-28T21:48:54.886Z,17.60
2022-10-28T21:51:24.648Z,17.60
2022-10-28T21:53:52.870Z,17.60
2022-10-28T21:56:21.547Z,17.60
2022-10-28T21:58:51.213Z,17.50
2022-10-28T22:01:21.312Z,17.50
2022-10-28T22:03:50.079Z,17.50
2022-10-28T22:06:18.564Z,17.50
2022-10-28T22:08:48.768Z,17.50
2022-10-28T22:11:19.033Z,17.50
2022-10-28T22:13:48.544Z,17.60
2022-10-28T22:16:18.807Z,17.50
2022-10-28T22:18:47.506Z,17.60
2022-10-28T22:21:20.489Z,17.50
2022-10-28T22:23:50.843Z,17.50
2022-10-28T22:26:20.753Z,17.50
2022-10-28T22:28:50.039Z,17.50
2022-10-28T22:31:21.529Z,17.50
2022-10-28T22:33:52.453Z,17.50
2022-10-28T22:36:22.617Z,17.50
2022-10-28T22:38:52.679Z,17.50
2022-10-28T22:41:22.531Z,17.40
2022-10-28T22:43:52.221Z,17.40
2022-10-28T22:46:21.157Z,17.40
2022-10-28T22:48:49.935Z,17.40
2022-10-28T22:51:18.660Z,17.40
2022-10-28T22:53:47.265Z,17.40
2022-10-28T22:56:20.205Z,17.40
2022-10-28T22:58:48.683Z,17.40
2022-10-28T23:01:19.196Z,17.40
2022-10-28T23:03:49.623Z,17.40
2022-10-28T23:06:20.223Z,17.30
2022-10-28T23:08:48.918Z,17.40
2022-10-28T23:11:20.563Z,17.40
2022-10-28T23:13:52.519Z,17.40
2022-10-28T23:16:21.509Z,17.40
2022-10-28T23:18:50.162Z,17.40
2022-10-28T23:21:20.100Z,17.40
2022-10-28T23:23:51.401Z,17.40
2022-10-28T23:26:24.349Z,17.40
2022-10-28T23:28:53.614Z,17.30
2022-10-28T23:31:22.989Z,17.40
2022-10-28T23:33:51.592Z,17.40
2022-10-28T23:36:20.115Z,17.40
2022-10-28T23:38:48.512Z,17.40
2022-10-28T23:41:18.927Z,17.40
2022-10-28T23:43:49.993Z,17.40
2022-10-28T23:46:18.372Z,17.50
2022-10-28T23:48:46.512Z,17.40
2022-10-28T23:51:14.581Z,17.40
2022-10-28T23:53:42.756Z,17.40
2022-10-28T23:56:10.784Z,17.50
2022-10-28T23:58:39.082Z,17.50
